sensor_id;sensor_type;location;lat;lon;timestamp;P1;durP1;ratioP1;P2;durP2;ratioP2
58756;SDS011;44527;47.460;19.016;2023-02-04T00:02:17;4.80;;;1.23;;
58756;SDS011;44527;47.460;19.016;2023-02-04T00:05:20;4.50;;;1.10;;
58756;SDS011;44527;47.460;19.016;2023-02-04T00:08:22;3.58;;;1.12;;
58756;SDS011;44527;47.460;19.016;2023-02-04T00:11:25;3.90;;;1.37;;
58756;SDS011;44527;47.460;19.016;2023-02-04T00:14:27;10.23;;;1.45;;
58756;SDS011;44527;47.460;19.016;2023-02-04T00:17:30;9.15;;;1.30;;
58756;SDS011;44527;47.460;19.016;2023-02-04T00:20:32;8.05;;;1.83;;
58756;SDS011;44527;47.460;19.016;2023-02-04T00:23:35;12.20;;;1.80;;
58756;SDS011;44527;47.460;19.016;2023-02-04T00:26:37;5.07;;;1.10;;
58756;SDS011;44527;47.460;19.016;2023-02-04T00:29:40;8.57;;;1.52;;
58756;SDS011;44527;47.460;19.016;2023-02-04T00:32:42;6.93;;;1.33;;
58756;SDS011;44527;47.460;19.016;2023-02-04T00:35:46;9.10;;;1.17;;
58756;SDS011;44527;47.460;19.016;2023-02-04T00:38:48;5.72;;;1.67;;
58756;SDS011;44527;47.460;19.016;2023-02-04T00:41:50;5.82;;;1.73;;
58756;SDS011;44527;47.460;19.016;2023-02-04T00:44:53;8.77;;;1.70;;
58756;SDS011;44527;47.460;19.016;2023-02-04T00:47:57;5.85;;;1.45;;
58756;SDS011;44527;47.460;19.016;2023-02-04T00:51:00;4.20;;;1.15;;
58756;SDS011;44527;47.460;19.016;2023-02-04T00:54:02;11.55;;;2.20;;
58756;SDS011;44527;47.460;19.016;2023-02-04T00:57:05;10.60;;;1.58;;
58756;SDS011;44527;47.460;19.016;2023-02-04T01:00:08;7.60;;;1.70;;
58756;SDS011;44527;47.460;19.016;2023-02-04T01:03:11;5.72;;;1.50;;
58756;SDS011;44527;47.460;19.016;2023-02-04T01:06:14;12.07;;;1.58;;
58756;SDS011;44527;47.460;19.016;2023-02-04T01:09:16;9.40;;;1.83;;
58756;SDS011;44527;47.460;19.016;2023-02-04T01:12:19;9.20;;;1.35;;
58756;SDS011;44527;47.460;19.016;2023-02-04T01:15:23;5.32;;;1.73;;
58756;SDS011;44527;47.460;19.016;2023-02-04T01:18:27;7.37;;;1.40;;
58756;SDS011;44527;47.460;19.016;2023-02-04T01:21:31;12.70;;;1.67;;
58756;SDS011;44527;47.460;19.016;2023-02-04T01:24:34;5.43;;;1.62;;
58756;SDS011;44527;47.460;19.016;2023-02-04T01:27:51;12.75;;;1.80;;
58756;SDS011;44527;47.460;19.016;2023-02-04T01:30:53;10.32;;;1.48;;
58756;SDS011;44527;47.460;19.016;2023-02-04T01:33:56;5.95;;;1.55;;
58756;SDS011;44527;47.460;19.016;2023-02-04T01:36:58;4.00;;;1.15;;
58756;SDS011;44527;47.460;19.016;2023-02-04T01:40:00;8.38;;;1.85;;
58756;SDS011;44527;47.460;19.016;2023-02-04T01:43:03;7.57;;;1.83;;
58756;SDS011;44527;47.460;19.016;2023-02-04T01:46:06;9.43;;;1.55;;
58756;SDS011;44527;47.460;19.016;2023-02-04T01:49:09;11.18;;;1.77;;
58756;SDS011;44527;47.460;19.016;2023-02-04T01:52:12;6.15;;;1.30;;
58756;SDS011;44527;47.460;19.016;2023-02-04T01:55:16;4.95;;;0.90;;
58756;SDS011;44527;47.460;19.016;2023-02-04T01:58:20;12.85;;;1.50;;
58756;SDS011;44527;47.460;19.016;2023-02-04T02:04:41;4.15;;;1.10;;
58756;SDS011;44527;47.460;19.016;2023-02-04T02:07:44;4.90;;;1.00;;
58756;SDS011;44527;47.460;19.016;2023-02-04T02:10:47;8.07;;;1.30;;
58756;SDS011;44527;47.460;19.016;2023-02-04T02:13:50;3.15;;;1.08;;
58756;SDS011;44527;47.460;19.016;2023-02-04T02:16:52;7.55;;;1.60;;
58756;SDS011;44527;47.460;19.016;2023-02-04T02:19:55;3.00;;;0.98;;
58756;SDS011;44527;47.460;19.016;2023-02-04T02:26:14;3.25;;;1.10;;
58756;SDS011;44527;47.460;19.016;2023-02-04T02:29:19;10.70;;;1.50;;
58756;SDS011;44527;47.460;19.016;2023-02-04T02:32:22;3.72;;;1.20;;
58756;SDS011;44527;47.460;19.016;2023-02-04T02:35:27;7.40;;;1.92;;
58756;SDS011;44527;47.460;19.016;2023-02-04T02:38:30;3.90;;;1.37;;
58756;SDS011;44527;47.460;19.016;2023-02-04T02:41:34;10.48;;;1.42;;
58756;SDS011;44527;47.460;19.016;2023-02-04T02:44:37;5.30;;;1.10;;
58756;SDS011;44527;47.460;19.016;2023-02-04T02:47:39;8.40;;;1.33;;
58756;SDS011;44527;47.460;19.016;2023-02-04T02:50:42;10.02;;;1.73;;
58756;SDS011;44527;47.460;19.016;2023-02-04T02:53:45;7.50;;;1.08;;
58756;SDS011;44527;47.460;19.016;2023-02-04T02:56:50;4.22;;;0.90;;
58756;SDS011;44527;47.460;19.016;2023-02-04T02:59:53;2.47;;;0.52;;
58756;SDS011;44527;47.460;19.016;2023-02-04T03:03:14;6.18;;;1.35;;
58756;SDS011;44527;47.460;19.016;2023-02-04T03:06:27;3.30;;;0.80;;
58756;SDS011;44527;47.460;19.016;2023-02-04T03:09:29;6.30;;;1.08;;
58756;SDS011;44527;47.460;19.016;2023-02-04T03:12:32;4.70;;;1.20;;
58756;SDS011;44527;47.460;19.016;2023-02-04T03:15:35;4.43;;;1.10;;
58756;SDS011;44527;47.460;19.016;2023-02-04T03:18:39;3.90;;;0.90;;
58756;SDS011;44527;47.460;19.016;2023-02-04T03:21:41;5.90;;;0.68;;
58756;SDS011;44527;47.460;19.016;2023-02-04T03:24:44;3.67;;;1.00;;
58756;SDS011;44527;47.460;19.016;2023-02-04T03:27:47;11.98;;;1.05;;
58756;SDS011;44527;47.460;19.016;2023-02-04T03:30:49;8.82;;;1.25;;
58756;SDS011;44527;47.460;19.016;2023-02-04T03:33:57;4.22;;;0.90;;
58756;SDS011;44527;47.460;19.016;2023-02-04T03:36:59;2.17;;;0.90;;
58756;SDS011;44527;47.460;19.016;2023-02-04T03:40:02;8.77;;;0.85;;
58756;SDS011;44527;47.460;19.016;2023-02-04T03:43:05;2.45;;;0.88;;
58756;SDS011;44527;47.460;19.016;2023-02-04T03:46:08;7.82;;;1.12;;
58756;SDS011;44527;47.460;19.016;2023-02-04T03:49:10;8.35;;;1.17;;
58756;SDS011;44527;47.460;19.016;2023-02-04T03:52:13;3.67;;;1.25;;
58756;SDS011;44527;47.460;19.016;2023-02-04T03:55:16;2.87;;;0.65;;
58756;SDS011;44527;47.460;19.016;2023-02-04T03:58:18;6.82;;;1.20;;
58756;SDS011;44527;47.460;19.016;2023-02-04T04:01:21;4.90;;;0.90;;
58756;SDS011;44527;47.460;19.016;2023-02-04T04:04:23;4.93;;;1.08;;
58756;SDS011;44527;47.460;19.016;2023-02-04T04:07:26;11.40;;;1.50;;
58756;SDS011;44527;47.460;19.016;2023-02-04T04:10:29;7.05;;;1.05;;
58756;SDS011;44527;47.460;19.016;2023-02-04T04:13:32;2.58;;;0.73;;
58756;SDS011;44527;47.460;19.016;2023-02-04T04:16:34;5.87;;;1.02;;
58756;SDS011;44527;47.460;19.016;2023-02-04T04:19:37;2.25;;;0.62;;
58756;SDS011;44527;47.460;19.016;2023-02-04T04:22:39;5.75;;;1.25;;
58756;SDS011;44527;47.460;19.016;2023-02-04T04:25:41;7.60;;;1.10;;
58756;SDS011;44527;47.460;19.016;2023-02-04T04:28:44;5.35;;;0.70;;
58756;SDS011;44527;47.460;19.016;2023-02-04T04:31:47;3.75;;;1.55;;
58756;SDS011;44527;47.460;19.016;2023-02-04T04:34:49;3.87;;;0.65;;
58756;SDS011;44527;47.460;19.016;2023-02-04T04:37:51;1.55;;;0.73;;
58756;SDS011;44527;47.460;19.016;2023-02-04T04:40:54;5.30;;;0.65;;
58756;SDS011;44527;47.460;19.016;2023-02-04T04:43:56;4.65;;;1.08;;
58756;SDS011;44527;47.460;19.016;2023-02-04T04:46:59;4.22;;;0.70;;
58756;SDS011;44527;47.460;19.016;2023-02-04T04:50:02;5.75;;;1.30;;
58756;SDS011;44527;47.460;19.016;2023-02-04T04:53:05;4.70;;;1.08;;
58756;SDS011;44527;47.460;19.016;2023-02-04T04:56:12;6.93;;;1.37;;
58756;SDS011;44527;47.460;19.016;2023-02-04T04:59:14;2.58;;;0.70;;
58756;SDS011;44527;47.460;19.016;2023-02-04T05:02:16;2.72;;;0.70;;
58756;SDS011;44527;47.460;19.016;2023-02-04T05:05:19;4.68;;;0.80;;
58756;SDS011;44527;47.460;19.016;2023-02-04T05:08:21;5.55;;;0.77;;
58756;SDS011;44527;47.460;19.016;2023-02-04T05:11:24;3.78;;;0.80;;
58756;SDS011;44527;47.460;19.016;2023-02-04T05:14:27;4.90;;;0.77;;
58756;SDS011;44527;47.460;19.016;2023-02-04T05:17:29;3.12;;;1.08;;
58756;SDS011;44527;47.460;19.016;2023-02-04T05:20:32;4.60;;;0.60;;
58756;SDS011;44527;47.460;19.016;2023-02-04T05:23:35;0.55;;;0.30;;
58756;SDS011;44527;47.460;19.016;2023-02-04T05:26:37;2.08;;;0.55;;
58756;SDS011;44527;47.460;19.016;2023-02-04T05:29:40;2.22;;;0.75;;
58756;SDS011;44527;47.460;19.016;2023-02-04T05:32:42;1.85;;;0.62;;
58756;SDS011;44527;47.460;19.016;2023-02-04T05:35:45;2.92;;;0.40;;
58756;SDS011;44527;47.460;19.016;2023-02-04T05:38:49;3.60;;;0.70;;
58756;SDS011;44527;47.460;19.016;2023-02-04T05:41:52;3.12;;;0.65;;
58756;SDS011;44527;47.460;19.016;2023-02-04T05:44:54;5.30;;;0.57;;
58756;SDS011;44527;47.460;19.016;2023-02-04T05:47:57;1.30;;;0.50;;
58756;SDS011;44527;47.460;19.016;2023-02-04T05:50:59;2.05;;;0.45;;
58756;SDS011;44527;47.460;19.016;2023-02-04T05:54:02;0.70;;;0.37;;
58756;SDS011;44527;47.460;19.016;2023-02-04T05:57:05;2.03;;;0.45;;
58756;SDS011;44527;47.460;19.016;2023-02-04T06:00:07;3.25;;;0.52;;
58756;SDS011;44527;47.460;19.016;2023-02-04T06:03:12;0.40;;;0.30;;
58756;SDS011;44527;47.460;19.016;2023-02-04T06:06:15;4.53;;;0.68;;
58756;SDS011;44527;47.460;19.016;2023-02-04T06:09:18;5.70;;;0.50;;
58756;SDS011;44527;47.460;19.016;2023-02-04T06:12:20;0.47;;;0.30;;
58756;SDS011;44527;47.460;19.016;2023-02-04T06:15:23;0.68;;;0.37;;
58756;SDS011;44527;47.460;19.016;2023-02-04T06:18:25;0.37;;;0.30;;
58756;SDS011;44527;47.460;19.016;2023-02-04T06:21:28;1.65;;;0.57;;
58756;SDS011;44527;47.460;19.016;2023-02-04T06:24:30;1.37;;;0.52;;
58756;SDS011;44527;47.460;19.016;2023-02-04T06:27:33;0.80;;;0.47;;
58756;SDS011;44527;47.460;19.016;2023-02-04T06:30:35;0.30;;;0.30;;
58756;SDS011;44527;47.460;19.016;2023-02-04T06:33:38;0.40;;;0.40;;
58756;SDS011;44527;47.460;19.016;2023-02-04T06:36:41;1.02;;;0.25;;
58756;SDS011;44527;47.460;19.016;2023-02-04T06:39:43;0.70;;;0.40;;
58756;SDS011;44527;47.460;19.016;2023-02-04T06:42:46;0.47;;;0.40;;
58756;SDS011;44527;47.460;19.016;2023-02-04T06:45:48;1.33;;;0.47;;
58756;SDS011;44527;47.460;19.016;2023-02-04T06:48:52;2.15;;;0.60;;
58756;SDS011;44527;47.460;19.016;2023-02-04T06:51:54;4.32;;;0.55;;
58756;SDS011;44527;47.460;19.016;2023-02-04T06:54:57;2.47;;;0.80;;
58756;SDS011;44527;47.460;19.016;2023-02-04T06:58:01;3.90;;;0.50;;
58756;SDS011;44527;47.460;19.016;2023-02-04T07:01:04;0.43;;;0.37;;
58756;SDS011;44527;47.460;19.016;2023-02-04T07:04:07;0.85;;;0.55;;
58756;SDS011;44527;47.460;19.016;2023-02-04T07:07:10;1.48;;;0.60;;
58756;SDS011;44527;47.460;19.016;2023-02-04T07:10:13;1.25;;;0.60;;
58756;SDS011;44527;47.460;19.016;2023-02-04T07:13:17;1.17;;;0.68;;
58756;SDS011;44527;47.460;19.016;2023-02-04T07:16:20;0.93;;;0.60;;
58756;SDS011;44527;47.460;19.016;2023-02-04T07:19:22;1.37;;;0.60;;
58756;SDS011;44527;47.460;19.016;2023-02-04T07:22:25;1.50;;;0.68;;
58756;SDS011;44527;47.460;19.016;2023-02-04T07:25:28;1.73;;;0.82;;
58756;SDS011;44527;47.460;19.016;2023-02-04T07:28:30;1.77;;;1.00;;
58756;SDS011;44527;47.460;19.016;2023-02-04T07:31:33;1.35;;;0.90;;
58756;SDS011;44527;47.460;19.016;2023-02-04T07:34:35;1.87;;;1.10;;
58756;SDS011;44527;47.460;19.016;2023-02-04T07:37:38;3.62;;;1.40;;
58756;SDS011;44527;47.460;19.016;2023-02-04T07:40:40;3.20;;;1.80;;
58756;SDS011;44527;47.460;19.016;2023-02-04T07:43:43;2.12;;;1.37;;
58756;SDS011;44527;47.460;19.016;2023-02-04T07:46:45;3.15;;;2.12;;
58756;SDS011;44527;47.460;19.016;2023-02-04T07:49:48;3.40;;;1.60;;
58756;SDS011;44527;47.460;19.016;2023-02-04T07:52:51;2.95;;;1.95;;
58756;SDS011;44527;47.460;19.016;2023-02-04T07:55:54;3.92;;;2.20;;
58756;SDS011;44527;47.460;19.016;2023-02-04T07:58:56;3.53;;;2.40;;
58756;SDS011;44527;47.460;19.016;2023-02-04T08:01:59;4.37;;;2.00;;
58756;SDS011;44527;47.460;19.016;2023-02-04T08:05:03;2.72;;;1.62;;
58756;SDS011;44527;47.460;19.016;2023-02-04T08:08:05;4.15;;;1.70;;
58756;SDS011;44527;47.460;19.016;2023-02-04T08:11:08;4.40;;;1.85;;
58756;SDS011;44527;47.460;19.016;2023-02-04T08:14:10;5.37;;;2.12;;
58756;SDS011;44527;47.460;19.016;2023-02-04T08:17:13;3.97;;;2.08;;
58756;SDS011;44527;47.460;19.016;2023-02-04T08:20:15;5.43;;;2.20;;
58756;SDS011;44527;47.460;19.016;2023-02-04T08:23:19;4.97;;;2.42;;
58756;SDS011;44527;47.460;19.016;2023-02-04T08:26:22;8.98;;;3.08;;
58756;SDS011;44527;47.460;19.016;2023-02-04T08:29:24;5.97;;;2.00;;
58756;SDS011;44527;47.460;19.016;2023-02-04T08:32:27;4.95;;;2.33;;
58756;SDS011;44527;47.460;19.016;2023-02-04T08:35:30;4.40;;;1.85;;
58756;SDS011;44527;47.460;19.016;2023-02-04T08:38:32;4.37;;;2.25;;
58756;SDS011;44527;47.460;19.016;2023-02-04T08:41:35;4.03;;;2.58;;
58756;SDS011;44527;47.460;19.016;2023-02-04T08:44:38;6.28;;;2.05;;
58756;SDS011;44527;47.460;19.016;2023-02-04T08:47:40;8.45;;;2.33;;
58756;SDS011;44527;47.460;19.016;2023-02-04T08:50:43;6.40;;;2.40;;
58756;SDS011;44527;47.460;19.016;2023-02-04T08:53:45;4.35;;;2.03;;
58756;SDS011;44527;47.460;19.016;2023-02-04T08:56:48;3.67;;;2.40;;
58756;SDS011;44527;47.460;19.016;2023-02-04T08:59:50;6.30;;;2.03;;
58756;SDS011;44527;47.460;19.016;2023-02-04T09:02:52;1.62;;;1.08;;
58756;SDS011;44527;47.460;19.016;2023-02-04T09:05:55;4.32;;;2.22;;
58756;SDS011;44527;47.460;19.016;2023-02-04T09:08:57;3.35;;;1.62;;
58756;SDS011;44527;47.460;19.016;2023-02-04T09:12:00;3.00;;;1.80;;
58756;SDS011;44527;47.460;19.016;2023-02-04T09:15:02;2.87;;;1.70;;
58756;SDS011;44527;47.460;19.016;2023-02-04T09:18:06;2.95;;;1.40;;
58756;SDS011;44527;47.460;19.016;2023-02-04T09:21:17;2.97;;;1.60;;
58756;SDS011;44527;47.460;19.016;2023-02-04T09:24:19;2.75;;;1.27;;
58756;SDS011;44527;47.460;19.016;2023-02-04T09:27:24;3.70;;;1.40;;
58756;SDS011;44527;47.460;19.016;2023-02-04T09:30:27;4.50;;;1.50;;
58756;SDS011;44527;47.460;19.016;2023-02-04T09:33:29;2.80;;;1.37;;
58756;SDS011;44527;47.460;19.016;2023-02-04T09:36:32;3.42;;;1.15;;
58756;SDS011;44527;47.460;19.016;2023-02-04T09:39:38;2.22;;;1.35;;
58756;SDS011;44527;47.460;19.016;2023-02-04T09:42:41;3.33;;;1.23;;
58756;SDS011;44527;47.460;19.016;2023-02-04T09:45:46;1.77;;;1.00;;
58756;SDS011;44527;47.460;19.016;2023-02-04T09:48:50;6.03;;;2.00;;
58756;SDS011;44527;47.460;19.016;2023-02-04T09:51:53;2.30;;;1.27;;
58756;SDS011;44527;47.460;19.016;2023-02-04T09:54:56;2.08;;;1.42;;
58756;SDS011;44527;47.460;19.016;2023-02-04T09:57:59;3.25;;;1.35;;
58756;SDS011;44527;47.460;19.016;2023-02-04T10:01:10;2.95;;;0.95;;
58756;SDS011;44527;47.460;19.016;2023-02-04T10:04:16;2.15;;;1.00;;
58756;SDS011;44527;47.460;19.016;2023-02-04T10:07:19;3.42;;;1.27;;
58756;SDS011;44527;47.460;19.016;2023-02-04T10:10:26;1.67;;;1.08;;
58756;SDS011;44527;47.460;19.016;2023-02-04T10:13:33;2.80;;;1.23;;
58756;SDS011;44527;47.460;19.016;2023-02-04T10:16:39;1.98;;;1.10;;
58756;SDS011;44527;47.460;19.016;2023-02-04T10:19:43;1.52;;;0.88;;
58756;SDS011;44527;47.460;19.016;2023-02-04T10:22:46;1.67;;;0.98;;
58756;SDS011;44527;47.460;19.016;2023-02-04T10:25:51;4.78;;;1.12;;
58756;SDS011;44527;47.460;19.016;2023-02-04T10:29:00;2.03;;;0.88;;
58756;SDS011;44527;47.460;19.016;2023-02-04T10:32:03;1.92;;;1.00;;
58756;SDS011;44527;47.460;19.016;2023-02-04T10:35:11;1.77;;;1.00;;
58756;SDS011;44527;47.460;19.016;2023-02-04T10:38:15;1.98;;;0.80;;
58756;SDS011;44527;47.460;19.016;2023-02-04T10:41:18;3.03;;;1.33;;
58756;SDS011;44527;47.460;19.016;2023-02-04T10:44:25;2.05;;;0.93;;
58756;SDS011;44527;47.460;19.016;2023-02-04T10:47:28;3.00;;;1.05;;
58756;SDS011;44527;47.460;19.016;2023-02-04T10:50:32;2.50;;;1.10;;
58756;SDS011;44527;47.460;19.016;2023-02-04T10:53:35;3.25;;;1.17;;
58756;SDS011;44527;47.460;19.016;2023-02-04T11:00:02;2.62;;;1.20;;
58756;SDS011;44527;47.460;19.016;2023-02-04T11:03:15;1.77;;;0.82;;
58756;SDS011;44527;47.460;19.016;2023-02-04T11:06:21;1.52;;;0.95;;
58756;SDS011;44527;47.460;19.016;2023-02-04T11:09:25;2.10;;;0.98;;
58756;SDS011;44527;47.460;19.016;2023-02-04T11:12:39;3.37;;;1.05;;
58756;SDS011;44527;47.460;19.016;2023-02-04T11:19:14;3.40;;;1.62;;
58756;SDS011;44527;47.460;19.016;2023-02-04T11:22:21;1.70;;;0.93;;
58756;SDS011;44527;47.460;19.016;2023-02-04T11:25:30;3.20;;;1.10;;
58756;SDS011;44527;47.460;19.016;2023-02-04T11:34:50;3.80;;;0.85;;
58756;SDS011;44527;47.460;19.016;2023-02-04T11:37:54;1.90;;;0.85;;
58756;SDS011;44527;47.460;19.016;2023-02-04T11:40:57;1.80;;;1.23;;
58756;SDS011;44527;47.460;19.016;2023-02-04T11:44:02;1.25;;;0.82;;
58756;SDS011;44527;47.460;19.016;2023-02-04T11:47:06;1.98;;;1.00;;
58756;SDS011;44527;47.460;19.016;2023-02-04T11:50:11;1.25;;;0.70;;
58756;SDS011;44527;47.460;19.016;2023-02-04T11:53:28;5.90;;;1.10;;
58756;SDS011;44527;47.460;19.016;2023-02-04T11:56:32;3.78;;;0.90;;
58756;SDS011;44527;47.460;19.016;2023-02-04T11:59:34;2.70;;;0.98;;
58756;SDS011;44527;47.460;19.016;2023-02-04T12:02:41;7.93;;;0.90;;
58756;SDS011;44527;47.460;19.016;2023-02-04T12:05:46;0.90;;;0.68;;
58756;SDS011;44527;47.460;19.016;2023-02-04T12:08:50;2.85;;;0.70;;
58756;SDS011;44527;47.460;19.016;2023-02-04T12:11:56;2.60;;;1.20;;
58756;SDS011;44527;47.460;19.016;2023-02-04T12:15:07;3.08;;;0.93;;
58756;SDS011;44527;47.460;19.016;2023-02-04T12:18:31;4.40;;;1.08;;
58756;SDS011;44527;47.460;19.016;2023-02-04T12:21:35;2.03;;;0.93;;
58756;SDS011;44527;47.460;19.016;2023-02-04T12:24:37;2.78;;;1.30;;
58756;SDS011;44527;47.460;19.016;2023-02-04T12:27:39;2.60;;;1.08;;
58756;SDS011;44527;47.460;19.016;2023-02-04T12:30:42;2.80;;;1.20;;
58756;SDS011;44527;47.460;19.016;2023-02-04T12:33:44;2.17;;;0.80;;
58756;SDS011;44527;47.460;19.016;2023-02-04T12:36:47;2.45;;;1.17;;
58756;SDS011;44527;47.460;19.016;2023-02-04T12:39:50;3.42;;;1.17;;
58756;SDS011;44527;47.460;19.016;2023-02-04T12:42:52;3.47;;;1.35;;
58756;SDS011;44527;47.460;19.016;2023-02-04T12:45:54;3.65;;;1.60;;
58756;SDS011;44527;47.460;19.016;2023-02-04T12:48:57;5.60;;;0.98;;
58756;SDS011;44527;47.460;19.016;2023-02-04T12:51:59;3.12;;;1.00;;
58756;SDS011;44527;47.460;19.016;2023-02-04T12:55:03;4.45;;;1.77;;
58756;SDS011;44527;47.460;19.016;2023-02-04T12:58:07;2.72;;;1.37;;
58756;SDS011;44527;47.460;19.016;2023-02-04T13:01:09;3.25;;;1.60;;
58756;SDS011;44527;47.460;19.016;2023-02-04T13:04:12;1.55;;;1.02;;
58756;SDS011;44527;47.460;19.016;2023-02-04T13:07:15;3.83;;;1.55;;
58756;SDS011;44527;47.460;19.016;2023-02-04T13:10:17;2.72;;;1.37;;
58756;SDS011;44527;47.460;19.016;2023-02-04T13:13:21;1.33;;;1.00;;
58756;SDS011;44527;47.460;19.016;2023-02-04T13:16:23;2.95;;;1.60;;
58756;SDS011;44527;47.460;19.016;2023-02-04T13:19:26;2.20;;;1.40;;
58756;SDS011;44527;47.460;19.016;2023-02-04T13:22:28;3.28;;;1.67;;
58756;SDS011;44527;47.460;19.016;2023-02-04T13:25:31;4.62;;;1.52;;
58756;SDS011;44527;47.460;19.016;2023-02-04T13:28:34;2.72;;;1.48;;
58756;SDS011;44527;47.460;19.016;2023-02-04T13:31:37;3.75;;;1.52;;
58756;SDS011;44527;47.460;19.016;2023-02-04T13:34:39;3.78;;;1.20;;
58756;SDS011;44527;47.460;19.016;2023-02-04T13:37:42;2.15;;;1.58;;
58756;SDS011;44527;47.460;19.016;2023-02-04T13:40:44;8.38;;;1.40;;
58756;SDS011;44527;47.460;19.016;2023-02-04T13:43:46;2.75;;;1.42;;
58756;SDS011;44527;47.460;19.016;2023-02-04T13:46:49;2.80;;;1.40;;
58756;SDS011;44527;47.460;19.016;2023-02-04T13:49:51;2.87;;;1.50;;
58756;SDS011;44527;47.460;19.016;2023-02-04T13:52:54;1.85;;;1.00;;
58756;SDS011;44527;47.460;19.016;2023-02-04T13:55:56;2.92;;;1.05;;
58756;SDS011;44527;47.460;19.016;2023-02-04T13:58:59;2.37;;;1.20;;
58756;SDS011;44527;47.460;19.016;2023-02-04T14:02:02;1.73;;;1.10;;
58756;SDS011;44527;47.460;19.016;2023-02-04T14:05:05;2.60;;;1.45;;
58756;SDS011;44527;47.460;19.016;2023-02-04T14:08:08;2.62;;;1.60;;
58756;SDS011;44527;47.460;19.016;2023-02-04T14:11:11;2.97;;;1.30;;
58756;SDS011;44527;47.460;19.016;2023-02-04T14:14:13;2.10;;;1.20;;
58756;SDS011;44527;47.460;19.016;2023-02-04T14:17:16;3.75;;;1.10;;
58756;SDS011;44527;47.460;19.016;2023-02-04T14:20:18;2.50;;;1.55;;
58756;SDS011;44527;47.460;19.016;2023-02-04T14:23:21;2.67;;;1.27;;
58756;SDS011;44527;47.460;19.016;2023-02-04T14:26:24;4.82;;;1.98;;
58756;SDS011;44527;47.460;19.016;2023-02-04T14:29:27;7.32;;;2.25;;
58756;SDS011;44527;47.460;19.016;2023-02-04T14:32:29;3.22;;;1.30;;
58756;SDS011;44527;47.460;19.016;2023-02-04T14:35:32;4.18;;;1.95;;
58756;SDS011;44527;47.460;19.016;2023-02-04T14:38:34;2.65;;;1.77;;
58756;SDS011;44527;47.460;19.016;2023-02-04T14:41:37;3.60;;;1.90;;
58756;SDS011;44527;47.460;19.016;2023-02-04T14:44:39;3.90;;;1.90;;
58756;SDS011;44527;47.460;19.016;2023-02-04T14:47:42;2.95;;;1.73;;
58756;SDS011;44527;47.460;19.016;2023-02-04T14:50:44;4.78;;;1.42;;
58756;SDS011;44527;47.460;19.016;2023-02-04T14:53:47;2.25;;;1.33;;
58756;SDS011;44527;47.460;19.016;2023-02-04T14:56:49;5.03;;;1.85;;
58756;SDS011;44527;47.460;19.016;2023-02-04T14:59:52;4.47;;;1.77;;
58756;SDS011;44527;47.460;19.016;2023-02-04T15:02:54;3.75;;;1.25;;
58756;SDS011;44527;47.460;19.016;2023-02-04T15:05:57;4.97;;;1.90;;
58756;SDS011;44527;47.460;19.016;2023-02-04T15:09:00;1.67;;;1.30;;
58756;SDS011;44527;47.460;19.016;2023-02-04T15:12:03;3.62;;;1.50;;
58756;SDS011;44527;47.460;19.016;2023-02-04T15:15:06;5.03;;;1.55;;
58756;SDS011;44527;47.460;19.016;2023-02-04T15:18:09;6.05;;;1.77;;
58756;SDS011;44527;47.460;19.016;2023-02-04T15:21:11;4.35;;;1.87;;
58756;SDS011;44527;47.460;19.016;2023-02-04T15:24:14;4.60;;;1.90;;
58756;SDS011;44527;47.460;19.016;2023-02-04T15:27:16;5.87;;;1.52;;
58756;SDS011;44527;47.460;19.016;2023-02-04T15:30:19;5.28;;;2.03;;
58756;SDS011;44527;47.460;19.016;2023-02-04T15:33:21;4.12;;;1.55;;
58756;SDS011;44527;47.460;19.016;2023-02-04T15:36:24;4.70;;;2.05;;
58756;SDS011;44527;47.460;19.016;2023-02-04T15:39:26;4.90;;;2.15;;
58756;SDS011;44527;47.460;19.016;2023-02-04T15:42:29;3.60;;;2.00;;
58756;SDS011;44527;47.460;19.016;2023-02-04T15:45:31;4.35;;;1.85;;
58756;SDS011;44527;47.460;19.016;2023-02-04T15:48:34;4.78;;;2.12;;
58756;SDS011;44527;47.460;19.016;2023-02-04T15:51:36;7.87;;;2.55;;
58756;SDS011;44527;47.460;19.016;2023-02-04T15:54:39;5.95;;;2.47;;
58756;SDS011;44527;47.460;19.016;2023-02-04T15:57:41;3.75;;;1.50;;
58756;SDS011;44527;47.460;19.016;2023-02-04T16:00:44;4.50;;;2.15;;
58756;SDS011;44527;47.460;19.016;2023-02-04T16:03:46;4.03;;;1.92;;
58756;SDS011;44527;47.460;19.016;2023-02-04T16:06:50;3.33;;;1.80;;
58756;SDS011;44527;47.460;19.016;2023-02-04T16:10:00;5.70;;;2.50;;
58756;SDS011;44527;47.460;19.016;2023-02-04T16:13:02;3.33;;;1.80;;
58756;SDS011;44527;47.460;19.016;2023-02-04T16:16:05;3.33;;;1.33;;
58756;SDS011;44527;47.460;19.016;2023-02-04T16:19:07;3.90;;;1.75;;
58756;SDS011;44527;47.460;19.016;2023-02-04T16:22:11;4.53;;;1.87;;
58756;SDS011;44527;47.460;19.016;2023-02-04T16:25:14;2.75;;;1.60;;
58756;SDS011;44527;47.460;19.016;2023-02-04T16:28:17;3.53;;;1.85;;
58756;SDS011;44527;47.460;19.016;2023-02-04T16:31:19;3.22;;;1.17;;
58756;SDS011;44527;47.460;19.016;2023-02-04T16:34:22;5.37;;;1.92;;
58756;SDS011;44527;47.460;19.016;2023-02-04T16:37:25;2.62;;;1.50;;
58756;SDS011;44527;47.460;19.016;2023-02-04T16:40:28;5.62;;;1.27;;
58756;SDS011;44527;47.460;19.016;2023-02-04T16:43:30;3.00;;;1.45;;
58756;SDS011;44527;47.460;19.016;2023-02-04T16:46:33;3.95;;;1.67;;
58756;SDS011;44527;47.460;19.016;2023-02-04T16:49:35;3.90;;;1.45;;
58756;SDS011;44527;47.460;19.016;2023-02-04T16:52:38;1.60;;;1.27;;
58756;SDS011;44527;47.460;19.016;2023-02-04T16:55:41;1.40;;;0.82;;
58756;SDS011;44527;47.460;19.016;2023-02-04T16:58:45;2.60;;;1.10;;
58756;SDS011;44527;47.460;19.016;2023-02-04T17:01:48;3.75;;;1.33;;
58756;SDS011;44527;47.460;19.016;2023-02-04T17:04:50;2.70;;;1.52;;
58756;SDS011;44527;47.460;19.016;2023-02-04T17:07:53;3.58;;;1.48;;
58756;SDS011;44527;47.460;19.016;2023-02-04T17:10:56;1.87;;;0.80;;
58756;SDS011;44527;47.460;19.016;2023-02-04T17:14:17;2.37;;;0.90;;
58756;SDS011;44527;47.460;19.016;2023-02-04T17:17:23;4.45;;;1.50;;
58756;SDS011;44527;47.460;19.016;2023-02-04T17:20:26;1.98;;;1.12;;
58756;SDS011;44527;47.460;19.016;2023-02-04T17:23:28;2.62;;;1.27;;
58756;SDS011;44527;47.460;19.016;2023-02-04T17:26:34;5.28;;;1.48;;
58756;SDS011;44527;47.460;19.016;2023-02-04T17:29:38;2.00;;;1.08;;
58756;SDS011;44527;47.460;19.016;2023-02-04T17:32:41;3.08;;;1.58;;
58756;SDS011;44527;47.460;19.016;2023-02-04T17:35:46;3.30;;;1.27;;
58756;SDS011;44527;47.460;19.016;2023-02-04T17:38:48;3.05;;;1.30;;
58756;SDS011;44527;47.460;19.016;2023-02-04T17:41:51;3.12;;;1.30;;
58756;SDS011;44527;47.460;19.016;2023-02-04T17:44:54;3.75;;;1.20;;
58756;SDS011;44527;47.460;19.016;2023-02-04T17:47:56;3.30;;;1.25;;
58756;SDS011;44527;47.460;19.016;2023-02-04T17:50:59;2.62;;;1.30;;
58756;SDS011;44527;47.460;19.016;2023-02-04T17:54:01;1.52;;;0.85;;
58756;SDS011;44527;47.460;19.016;2023-02-04T17:57:14;2.25;;;1.23;;
58756;SDS011;44527;47.460;19.016;2023-02-04T18:00:20;2.92;;;1.30;;
58756;SDS011;44527;47.460;19.016;2023-02-04T18:03:26;1.65;;;1.00;;
58756;SDS011;44527;47.460;19.016;2023-02-04T18:06:29;3.92;;;1.42;;
58756;SDS011;44527;47.460;19.016;2023-02-04T18:09:32;3.92;;;1.27;;
58756;SDS011;44527;47.460;19.016;2023-02-04T18:12:36;3.83;;;1.35;;
58756;SDS011;44527;47.460;19.016;2023-02-04T18:15:38;2.90;;;1.67;;
58756;SDS011;44527;47.460;19.016;2023-02-04T18:18:41;4.72;;;1.85;;
58756;SDS011;44527;47.460;19.016;2023-02-04T18:21:44;4.03;;;1.30;;
58756;SDS011;44527;47.460;19.016;2023-02-04T18:24:47;6.85;;;1.60;;
58756;SDS011;44527;47.460;19.016;2023-02-04T18:27:50;5.03;;;1.35;;